• Join FlightAware (Why Join?)
  • Login
  • US Flag 
04:05PM EDT


 

Airport Tracker/Info


-or-


 

Live Flight TrackerFlight Track Log ✈ UAL4401 ✈ 01-Apr-2014 ✈ KIAD - KCMH

Flight Track Log - Related Links

Times and Time Zones

All times are in EDT time to prevent confusion due to time zone crossing. See the UAL4401 flight status page for this flight to view local times or setup timezone preferences in your user account.

Time Position Orientation Groundspeed Altitude Reporting Facility
EDT Latitude Longitude Course Direction KTS MPH feet Rate Location/Type
12:55PM 38.9667 -78.4575 270° West  Level FlightAware Approximate
12:56PM 38.9787 -78.5723 282° West  Level FlightAware Approximate
12:57PM 38.9834 -78.6881 270° West  Level FlightAware Approximate
12:58PM 38.9868 -78.8043 275° West  Level FlightAware Approximate
12:59PM 38.9940 -78.9204 275° West  Level FlightAware Approximate
01:00PM 39.0033 -79.0361 282° West  Level FlightAware Approximate
01:01PM 39.0167 -79.1508 270° West  Level FlightAware Approximate
01:02PM 39.0167 -79.2672 270° West  Level FlightAware Approximate
01:03PM 39.0231 -79.3833 276° West  Level FlightAware Approximate
01:04PM 39.0320 -79.4993 276° West  Level FlightAware Approximate
01:05PM 39.0333 -79.6157 270° West  Level FlightAware Approximate
01:06PM 39.0511 -79.7299 276° West  Level FlightAware Approximate
01:07PM 39.0608 -79.8457 276° West  Level FlightAware Approximate
01:08PM 39.0683 -79.9618 274° West  Level FlightAware Approximate
01:09PM 39.0748 -80.0781 274° West  Level FlightAware Approximate
01:10PM 39.0812 -80.1944 274° West  Level FlightAware Approximate
01:11PM 39.0833 -80.3109 270° West  Level FlightAware Approximate
01:12PM 39.0845 -80.4274 278° West  Level FlightAware Approximate
01:13PM 39.0974 -80.5428 278° West  Level FlightAware Approximate
01:14PM 39.1000 -80.6592 270° West  Level FlightAware Approximate
01:15PM 39.1000 -80.7758 270° West  Level FlightAware Approximate
01:16PM 39.1069 -80.8921 275° West  Level FlightAware Approximate
01:17PM 39.1141 -81.0084 275° West  Level FlightAware Approximate
01:18PM 39.1294 -81.1215 293° West  Level FlightAware Approximate
01:19PM 39.1708 -81.2249 303° West  Level FlightAware Approximate
01:20PM 39.2136 -81.3276 297° West  Level FlightAware Approximate
01:21PM 39.2542 -81.4320 297° West  Level FlightAware Approximate
01:22PM 39.2948 -81.5365 297° West  Level FlightAware Approximate
01:23PM 39.3329 -81.6426 295° West  Level FlightAware Approximate
01:24PM 39.3707 -81.7490 295° West  Level FlightAware Approximate
01:25PM 39.4083 -81.8555 295° West  Level FlightAware Approximate
01:26PM 39.4458 -81.9621 295° West  Level FlightAware Approximate
01:27PM 39.4833 -82.0688 294° West  Level FlightAware Approximate
01:28PM 39.5272 -82.1710 303° West  Level FlightAware Approximate
01:29PM 39.5564 -82.2806 290° West  Level FlightAware Approximate
01:30PM 39.6059 -82.3762 318° Northwest  Level FlightAware Approximate
01:31PM 39.6732 -82.4548 318° Northwest  Level FlightAware Approximate
01:32PM 39.7278 -82.5477 315° West  Level FlightAware Approximate
01:33PM 39.7922 -82.6304 315° West  Level FlightAware Approximate
01:34PM 39.8548 -82.7155 311° West  Level FlightAware Approximate
01:35PM 39.9212 -82.7949 314° West  Level FlightAware Approximate
01:36PM 39.9824 -82.8819 311° West  Level FlightAware Approximate
01:37PM 39.9833 -82.8833 311° West  Level FlightAware Approximate
01:38PM 39.9969 -82.8922 311° West  Level Estimated
01:39PM 39.9969 -82.8922 311° West  Level Estimated
01:40PM 39.9969 -82.8922 311° West  Level Estimated
01:41PM 39.9969 -82.8922 311° West  Level Estimated
01:42PM 39.9969 -82.8922 311° West  Level Estimated